首页
METAR-TAF:

METAR-TAF

机场 :

Bluefield, 西維吉尼亞州, 美国

纬度: 37-17-45N, 经度: 081-12-28W, 海拔: 871米

当前天气观测

该预报发布于27分钟前的10:52 UTC
风速3节,风向西
温度 3°C
湿度 87%
气压 1015 hPa
能見度: 16.1公里
阴天层高于800英尺

METAR: KBLF 211052Z AUTO 27003KT 10SM OVC008 03/01 A2997 RMK AO2 CIG 006V011 SLP152 T00280011

时间: 07:19 (11:19 UTC)

预报

该预报发布于4小时和37分钟前的06:42 UTC
预报有效从21日的 07点(UTC)到 22日的 06点(UTC)
风速6节,风向西
能見度: 10公里
散云层高于700英尺
阴天层高于1400英尺
附近有阵雨
短暂存在
从 21日的 07点(UTC)到 21日的 11点(UTC)
阴天层高于500英尺
从 21日的 1600点(UTC)
风速5节,风向西转西北
能見度: 10公里
多云层高于1500英尺
从 21日的 1900点(UTC)
风速6节,风向西转西北
能見度: 10公里
多云层高于2200英尺
从 21日的 2200点(UTC)
风速6节,风向西转西北
能見度: 10公里
散云层高于2200英尺

TAF: KBLF 210642Z 2107/2206 28006KT P6SM VCSH SCT007 OVC014 TEMPO 2107/2111 OVC005 FM211600 30005KT P6SM BKN015 FM211900 30006KT P6SM BKN022 FM212200 30006KT P6SM SCT022

超过4000个机场的气象观测和天气预报(METAR&TAF报告)。

可查询的气象台以黄色和红色小点在地图上表示。

将鼠标移到小点上方,可查看气象台名称。

然后点击查看天气观测和预报。

如需切换地图:点击带黑十字的绿色按钮放大地图;点击带横线的绿色按钮缩小地图;或者点击绿色箭头查看邻近地区的地图。


METAR-TAF: